sensor_id;sensor_type;location;lat;lon;timestamp;pressure;altitude;pressure_sealevel;temperature;humidity
46007;BME280;31738;50.188;8.524;2024-02-23T00:01:04;96418.47;;;9.24;84.73
46007;BME280;31738;50.188;8.524;2024-02-23T00:03:30;96410.00;;;9.22;85.09
46007;BME280;31738;50.188;8.524;2024-02-23T00:05:55;96436.56;;;9.18;84.87
46007;BME280;31738;50.188;8.524;2024-02-23T00:08:20;96450.28;;;9.17;84.67
46007;BME280;31738;50.188;8.524;2024-02-23T00:10:46;96439.13;;;9.15;84.52
46007;BME280;31738;50.188;8.524;2024-02-23T00:13:11;96449.34;;;9.13;84.06
46007;BME280;31738;50.188;8.524;2024-02-23T00:15:37;96463.84;;;9.12;84.13
46007;BME280;31738;50.188;8.524;2024-02-23T00:18:02;96463.84;;;9.12;84.33
46007;BME280;31738;50.188;8.524;2024-02-23T00:20:29;96460.69;;;9.10;84.11
46007;BME280;31738;50.188;8.524;2024-02-23T00:22:54;96463.69;;;9.08;84.33
46007;BME280;31738;50.188;8.524;2024-02-23T00:25:20;96466.69;;;9.07;84.23
46007;BME280;31738;50.188;8.524;2024-02-23T00:27:45;96478.94;;;9.08;83.85
46007;BME280;31738;50.188;8.524;2024-02-23T00:30:13;96478.47;;;9.06;83.67
46007;BME280;31738;50.188;8.524;2024-02-23T00:32:38;96489.50;;;9.04;83.96
46007;BME280;31738;50.188;8.524;2024-02-23T00:35:04;96502.53;;;9.06;83.56
46007;BME280;31738;50.188;8.524;2024-02-23T00:37:30;96516.22;;;9.04;83.48
46007;BME280;31738;50.188;8.524;2024-02-23T00:40:04;96531.47;;;9.04;83.43
46007;BME280;31738;50.188;8.524;2024-02-23T00:42:30;96523.78;;;9.02;83.61
46007;BME280;31738;50.188;8.524;2024-02-23T00:44:56;96533.66;;;9.02;83.33
46007;BME280;31738;50.188;8.524;2024-02-23T00:47:21;96542.81;;;9.01;83.48
46007;BME280;31738;50.188;8.524;2024-02-23T00:49:47;96553.50;;;9.01;83.48
46007;BME280;31738;50.188;8.524;2024-02-23T00:52:12;96572.03;;;8.97;83.34
46007;BME280;31738;50.188;8.524;2024-02-23T00:54:38;96571.91;;;8.94;83.58
46007;BME280;31738;50.188;8.524;2024-02-23T00:57:03;96560.75;;;8.92;83.76
46007;BME280;31738;50.188;8.524;2024-02-23T00:59:29;96575.50;;;8.89;83.35
46007;BME280;31738;50.188;8.524;2024-02-23T01:01:55;96574.25;;;8.87;83.19
46007;BME280;31738;50.188;8.524;2024-02-23T01:04:20;96578.34;;;8.84;83.00
46007;BME280;31738;50.188;8.524;2024-02-23T01:06:46;96605.84;;;8.85;83.31
46007;BME280;31738;50.188;8.524;2024-02-23T01:09:11;96609.16;;;8.82;83.12
46007;BME280;31738;50.188;8.524;2024-02-23T01:11:37;96614.50;;;8.82;83.57
46007;BME280;31738;50.188;8.524;2024-02-23T01:14:02;96598.94;;;8.75;83.53
46007;BME280;31738;50.188;8.524;2024-02-23T01:16:28;96599.41;;;8.68;83.51
46007;BME280;31738;50.188;8.524;2024-02-23T01:18:53;96618.09;;;8.60;83.41
46007;BME280;31738;50.188;8.524;2024-02-23T01:21:19;96622.31;;;8.52;83.85
46007;BME280;31738;50.188;8.524;2024-02-23T01:23:44;96622.50;;;8.47;83.98
46007;BME280;31738;50.188;8.524;2024-02-23T01:26:10;96633.78;;;8.44;84.00
46007;BME280;31738;50.188;8.524;2024-02-23T01:28:35;96632.81;;;8.40;83.71
46007;BME280;31738;50.188;8.524;2024-02-23T01:31:01;96644.44;;;8.36;83.44
46007;BME280;31738;50.188;8.524;2024-02-23T01:33:26;96643.94;;;8.34;83.60
46007;BME280;31738;50.188;8.524;2024-02-23T01:35:52;96651.03;;;8.30;83.50
46007;BME280;31738;50.188;8.524;2024-02-23T01:38:17;96644.75;;;8.26;83.19
46007;BME280;31738;50.188;8.524;2024-02-23T01:40:46;96648.03;;;8.23;83.04
46007;BME280;31738;50.188;8.524;2024-02-23T01:43:13;96655.81;;;8.19;83.18
46007;BME280;31738;50.188;8.524;2024-02-23T01:45:38;96658.00;;;8.17;83.07
46007;BME280;31738;50.188;8.524;2024-02-23T01:48:04;96660.22;;;8.15;82.74
46007;BME280;31738;50.188;8.524;2024-02-23T01:50:31;96661.59;;;8.13;82.32
46007;BME280;31738;50.188;8.524;2024-02-23T01:53:00;96666.31;;;8.07;81.94
46007;BME280;31738;50.188;8.524;2024-02-23T01:55:25;96677.09;;;8.02;81.99
46007;BME280;31738;50.188;8.524;2024-02-23T01:57:51;96685.25;;;7.97;81.91
46007;BME280;31738;50.188;8.524;2024-02-23T02:00:18;96688.81;;;7.93;81.84
46007;BME280;31738;50.188;8.524;2024-02-23T02:02:50;96693.53;;;7.87;81.80
46007;BME280;31738;50.188;8.524;2024-02-23T02:05:16;96704.50;;;7.86;82.17
46007;BME280;31738;50.188;8.524;2024-02-23T02:07:42;96706.97;;;7.82;81.70
46007;BME280;31738;50.188;8.524;2024-02-23T02:10:09;96704.94;;;7.79;81.39
46007;BME280;31738;50.188;8.524;2024-02-23T02:12:34;96710.88;;;7.76;81.24
46007;BME280;31738;50.188;8.524;2024-02-23T02:15:01;96717.91;;;7.72;81.50
46007;BME280;31738;50.188;8.524;2024-02-23T02:17:30;96719.59;;;7.68;81.24
46007;BME280;31738;50.188;8.524;2024-02-23T02:19:58;96740.47;;;7.66;81.44
46007;BME280;31738;50.188;8.524;2024-02-23T02:22:24;96735.25;;;7.61;80.88
46007;BME280;31738;50.188;8.524;2024-02-23T02:24:49;96738.03;;;7.56;80.99
46007;BME280;31738;50.188;8.524;2024-02-23T02:27:15;96748.22;;;7.54;80.96
46007;BME280;31738;50.188;8.524;2024-02-23T02:29:40;96747.75;;;7.52;80.55
46007;BME280;31738;50.188;8.524;2024-02-23T02:32:09;96752.28;;;7.52;80.86
46007;BME280;31738;50.188;8.524;2024-02-23T02:34:34;96756.50;;;7.53;81.03
46007;BME280;31738;50.188;8.524;2024-02-23T02:37:00;96755.25;;;7.50;80.50
46007;BME280;31738;50.188;8.524;2024-02-23T02:39:25;96760.38;;;7.47;80.46
46007;BME280;31738;50.188;8.524;2024-02-23T02:41:51;96754.88;;;7.43;80.54
46007;BME280;31738;50.188;8.524;2024-02-23T02:44:16;96753.44;;;7.37;80.74
46007;BME280;31738;50.188;8.524;2024-02-23T02:46:42;96753.22;;;7.34;81.12
46007;BME280;31738;50.188;8.524;2024-02-23T02:49:07;96764.78;;;7.29;81.16
46007;BME280;31738;50.188;8.524;2024-02-23T02:51:33;96766.97;;;7.27;81.12
46007;BME280;31738;50.188;8.524;2024-02-23T02:53:58;96770.53;;;7.23;80.81
46007;BME280;31738;50.188;8.524;2024-02-23T02:56:24;96767.66;;;7.19;80.82
46007;BME280;31738;50.188;8.524;2024-02-23T02:58:49;96765.81;;;7.20;80.47
46007;BME280;31738;50.188;8.524;2024-02-23T03:01:15;96778.03;;;7.21;80.19
46007;BME280;31738;50.188;8.524;2024-02-23T03:03:40;96774.00;;;7.23;80.10
46007;BME280;31738;50.188;8.524;2024-02-23T03:06:06;96781.41;;;7.26;80.01
46007;BME280;31738;50.188;8.524;2024-02-23T03:08:33;96792.53;;;7.28;79.95
46007;BME280;31738;50.188;8.524;2024-02-23T03:10:58;96799.16;;;7.31;79.86
46007;BME280;31738;50.188;8.524;2024-02-23T03:15:53;96807.34;;;7.34;79.68
46007;BME280;31738;50.188;8.524;2024-02-23T03:18:19;96801.53;;;7.32;79.63
46007;BME280;31738;50.188;8.524;2024-02-23T03:20:44;96802.88;;;7.30;79.48
46007;BME280;31738;50.188;8.524;2024-02-23T03:23:10;96809.63;;;7.27;79.54
46007;BME280;31738;50.188;8.524;2024-02-23T03:25:36;96807.56;;;7.24;79.76
46007;BME280;31738;50.188;8.524;2024-02-23T03:28:02;96800.16;;;7.21;79.29
46007;BME280;31738;50.188;8.524;2024-02-23T03:30:32;96805.00;;;7.19;79.44
46007;BME280;31738;50.188;8.524;2024-02-23T03:32:57;96800.25;;;7.16;79.33
46007;BME280;31738;50.188;8.524;2024-02-23T03:35:23;96802.91;;;7.16;79.49
46007;BME280;31738;50.188;8.524;2024-02-23T03:37:52;96809.84;;;7.17;78.98
46007;BME280;31738;50.188;8.524;2024-02-23T03:40:20;96799.78;;;7.14;79.25
46007;BME280;31738;50.188;8.524;2024-02-23T03:42:45;96799.78;;;7.14;78.97
46007;BME280;31738;50.188;8.524;2024-02-23T03:45:11;96799.78;;;7.14;78.89
46007;BME280;31738;50.188;8.524;2024-02-23T03:47:38;96801.66;;;7.14;79.34
46007;BME280;31738;50.188;8.524;2024-02-23T03:50:04;96806.19;;;7.13;79.33
46007;BME280;31738;50.188;8.524;2024-02-23T03:52:30;96804.63;;;7.12;78.86
46007;BME280;31738;50.188;8.524;2024-02-23T03:54:56;96795.06;;;7.11;79.22
46007;BME280;31738;50.188;8.524;2024-02-23T03:57:21;96808.47;;;7.06;79.22
46007;BME280;31738;50.188;8.524;2024-02-23T03:59:54;96813.09;;;7.00;79.17
46007;BME280;31738;50.188;8.524;2024-02-23T04:02:19;96805.53;;;6.94;79.32
46007;BME280;31738;50.188;8.524;2024-02-23T04:04:46;96807.69;;;6.92;79.01
46007;BME280;31738;50.188;8.524;2024-02-23T04:07:11;96810.94;;;6.89;79.50
46007;BME280;31738;50.188;8.524;2024-02-23T04:09:37;96823.75;;;6.87;79.12
46007;BME280;31738;50.188;8.524;2024-02-23T04:12:05;96828.41;;;6.81;79.82
46007;BME280;31738;50.188;8.524;2024-02-23T04:14:33;96821.22;;;6.82;79.74
46007;BME280;31738;50.188;8.524;2024-02-23T04:17:03;96828.91;;;6.83;79.75
46007;BME280;31738;50.188;8.524;2024-02-23T04:19:36;96829.69;;;6.84;79.51
46007;BME280;31738;50.188;8.524;2024-02-23T04:22:06;96824.06;;;6.85;79.93
46007;BME280;31738;50.188;8.524;2024-02-23T04:24:39;96829.38;;;6.85;79.62
46007;BME280;31738;50.188;8.524;2024-02-23T04:27:05;96828.03;;;6.88;79.97
46007;BME280;31738;50.188;8.524;2024-02-23T04:29:31;96829.59;;;6.89;79.94
46007;BME280;31738;50.188;8.524;2024-02-23T04:32:03;96825.25;;;6.93;80.27
46007;BME280;31738;50.188;8.524;2024-02-23T04:34:29;96826.84;;;6.94;79.70
46007;BME280;31738;50.188;8.524;2024-02-23T04:36:54;96828.41;;;6.95;80.03
46007;BME280;31738;50.188;8.524;2024-02-23T04:39:21;96826.84;;;6.94;80.05
46007;BME280;31738;50.188;8.524;2024-02-23T04:41:49;96820.72;;;6.93;79.76
46007;BME280;31738;50.188;8.524;2024-02-23T04:44:15;96825.25;;;6.93;80.48
46007;BME280;31738;50.188;8.524;2024-02-23T04:46:43;96821.50;;;6.94;80.28
46007;BME280;31738;50.188;8.524;2024-02-23T04:49:10;96824.66;;;6.96;80.37
46007;BME280;31738;50.188;8.524;2024-02-23T04:51:37;96820.91;;;6.97;80.38
46007;BME280;31738;50.188;8.524;2024-02-23T04:54:02;96820.91;;;6.97;79.88
46007;BME280;31738;50.188;8.524;2024-02-23T04:56:28;96828.41;;;6.95;80.43
46007;BME280;31738;50.188;8.524;2024-02-23T04:58:53;96822.28;;;6.94;80.16
46007;BME280;31738;50.188;8.524;2024-02-23T05:01:19;96835.31;;;6.96;80.44
46007;BME280;31738;50.188;8.524;2024-02-23T05:03:54;96827.31;;;6.96;80.38
46007;BME280;31738;50.188;8.524;2024-02-23T05:06:19;96830.56;;;6.93;80.29
46007;BME280;31738;50.188;8.524;2024-02-23T05:08:45;96835.13;;;6.92;80.40
46007;BME280;31738;50.188;8.524;2024-02-23T05:11:10;96826.34;;;6.92;80.92
46007;BME280;31738;50.188;8.524;2024-02-23T05:13:38;96829.00;;;6.92;81.20
46007;BME280;31738;50.188;8.524;2024-02-23T05:16:07;96828.03;;;6.88;81.07
46007;BME280;31738;50.188;8.524;2024-02-23T05:18:32;96824.28;;;6.89;81.40
46007;BME280;31738;50.188;8.524;2024-02-23T05:20:57;96812.03;;;6.88;81.46
46007;BME280;31738;50.188;8.524;2024-02-23T05:23:24;96813.13;;;6.87;81.34
46007;BME280;31738;50.188;8.524;2024-02-23T05:25:49;96813.41;;;6.85;81.71
46007;BME280;31738;50.188;8.524;2024-02-23T05:28:15;96815.59;;;6.83;81.78
46007;BME280;31738;50.188;8.524;2024-02-23T05:30:41;96814.81;;;6.83;81.69
46007;BME280;31738;50.188;8.524;2024-02-23T05:33:07;96814.50;;;6.84;81.92
46007;BME280;31738;50.188;8.524;2024-02-23T05:35:42;96814.00;;;6.82;81.58
46007;BME280;31738;50.188;8.524;2024-02-23T05:38:18;96819.16;;;6.79;81.45
46007;BME280;31738;50.188;8.524;2024-02-23T05:40:44;96819.91;;;6.79;81.85
46007;BME280;31738;50.188;8.524;2024-02-23T05:43:10;96826.06;;;6.80;82.12
46007;BME280;31738;50.188;8.524;2024-02-23T05:45:38;96812.22;;;6.78;82.04
46007;BME280;31738;50.188;8.524;2024-02-23T05:48:04;96813.91;;;6.74;82.29
46007;BME280;31738;50.188;8.524;2024-02-23T05:50:30;96807.28;;;6.71;82.16
46007;BME280;31738;50.188;8.524;2024-02-23T05:52:56;96810.25;;;6.70;81.68
46007;BME280;31738;50.188;8.524;2024-02-23T05:55:22;96813.50;;;6.67;81.71
46007;BME280;31738;50.188;8.524;2024-02-23T05:57:48;96811.44;;;6.64;81.97
46007;BME280;31738;50.188;8.524;2024-02-23T06:00:16;96820.00;;;6.61;81.85
46007;BME280;31738;50.188;8.524;2024-02-23T06:02:45;96815.28;;;6.58;82.01
46007;BME280;31738;50.188;8.524;2024-02-23T06:05:12;96816.38;;;6.57;82.09
46007;BME280;31738;50.188;8.524;2024-02-23T06:07:38;96812.13;;;6.56;82.03
46007;BME280;31738;50.188;8.524;2024-02-23T06:10:04;96829.16;;;6.55;81.99
46007;BME280;31738;50.188;8.524;2024-02-23T06:12:30;96821.47;;;6.53;81.94
46007;BME280;31738;50.188;8.524;2024-02-23T06:14:56;96819.69;;;6.49;82.54
46007;BME280;31738;50.188;8.524;2024-02-23T06:17:22;96818.91;;;6.48;82.23
46007;BME280;31738;50.188;8.524;2024-02-23T06:19:48;96821.84;;;6.47;82.46
46007;BME280;31738;50.188;8.524;2024-02-23T06:22:14;96812.81;;;6.48;82.12
46007;BME280;31738;50.188;8.524;2024-02-23T06:24:45;96815.75;;;6.46;82.27
46007;BME280;31738;50.188;8.524;2024-02-23T06:27:11;96820.28;;;6.46;82.25
46007;BME280;31738;50.188;8.524;2024-02-23T06:29:36;96825.41;;;6.42;82.21
46007;BME280;31738;50.188;8.524;2024-02-23T06:32:02;96839.00;;;6.41;82.35
46007;BME280;31738;50.188;8.524;2024-02-23T06:34:28;96850.25;;;6.38;82.14
46007;BME280;31738;50.188;8.524;2024-02-23T06:36:54;96861.47;;;6.35;82.36
46007;BME280;31738;50.188;8.524;2024-02-23T06:39:19;96860.69;;;6.34;82.44
46007;BME280;31738;50.188;8.524;2024-02-23T06:41:48;96869.75;;;6.33;82.63
46007;BME280;31738;50.188;8.524;2024-02-23T06:44:13;96876.69;;;6.34;82.39
46007;BME280;31738;50.188;8.524;2024-02-23T06:46:41;96881.72;;;6.36;82.60
46007;BME280;31738;50.188;8.524;2024-02-23T06:49:09;96881.72;;;6.36;82.17
46007;BME280;31738;50.188;8.524;2024-02-23T06:51:35;96880.63;;;6.37;82.46
46007;BME280;31738;50.188;8.524;2024-02-23T06:54:00;96887.50;;;6.38;82.89
46007;BME280;31738;50.188;8.524;2024-02-23T06:56:26;96889.09;;;6.39;82.63
46007;BME280;31738;50.188;8.524;2024-02-23T06:58:55;96892.75;;;6.43;82.93
46007;BME280;31738;50.188;8.524;2024-02-23T07:01:20;96903.41;;;6.43;83.04
46007;BME280;31738;50.188;8.524;2024-02-23T07:03:46;96895.44;;;6.43;83.08
46007;BME280;31738;50.188;8.524;2024-02-23T07:06:11;96891.66;;;6.44;83.10
46007;BME280;31738;50.188;8.524;2024-02-23T07:08:37;96899.66;;;6.44;82.95
46007;BME280;31738;50.188;8.524;2024-02-23T07:11:03;96890.91;;;6.43;82.88
46007;BME280;31738;50.188;8.524;2024-02-23T07:13:29;96905.50;;;6.46;83.13
46007;BME280;31738;50.188;8.524;2024-02-23T07:15:55;96896.91;;;6.49;82.93
46007;BME280;31738;50.188;8.524;2024-02-23T07:18:21;96899.28;;;6.50;82.89
46007;BME280;31738;50.188;8.524;2024-02-23T07:20:47;96907.50;;;6.54;82.98
46007;BME280;31738;50.188;8.524;2024-02-23T07:23:13;96907.72;;;6.57;82.85
46007;BME280;31738;50.188;8.524;2024-02-23T07:25:45;96906.31;;;6.60;83.25
46007;BME280;31738;50.188;8.524;2024-02-23T07:28:18;96901.78;;;6.60;82.97
46007;BME280;31738;50.188;8.524;2024-02-23T07:30:51;96904.16;;;6.62;82.92
46007;BME280;31738;50.188;8.524;2024-02-23T07:33:18;96899.31;;;6.64;83.37
46007;BME280;31738;50.188;8.524;2024-02-23T07:36:04;96899.31;;;6.64;83.03
46007;BME280;31738;50.188;8.524;2024-02-23T07:38:32;96900.03;;;6.69;83.32
46007;BME280;31738;50.188;8.524;2024-02-23T07:40:58;96898.06;;;6.75;83.17
46007;BME280;31738;50.188;8.524;2024-02-23T07:43:23;96907.06;;;6.79;83.07
46007;BME280;31738;50.188;8.524;2024-02-23T07:45:54;96907.75;;;6.84;82.69
46007;BME280;31738;50.188;8.524;2024-02-23T07:48:19;96904.22;;;6.89;82.58
46007;BME280;31738;50.188;8.524;2024-02-23T07:50:45;96905.19;;;6.93;82.91
46007;BME280;31738;50.188;8.524;2024-02-23T07:53:10;96906.38;;;7.00;82.69
46007;BME280;31738;50.188;8.524;2024-02-23T07:55:39;96911.91;;;7.04;82.61
46007;BME280;31738;50.188;8.524;2024-02-23T07:58:05;96916.66;;;7.07;82.51
46007;BME280;31738;50.188;8.524;2024-02-23T08:00:30;96921.91;;;7.12;82.88
46007;BME280;31738;50.188;8.524;2024-02-23T08:02:56;96922.41;;;7.14;82.79
46007;BME280;31738;50.188;8.524;2024-02-23T08:05:25;96922.09;;;7.16;82.56
46007;BME280;31738;50.188;8.524;2024-02-23T08:07:51;96927.91;;;7.18;82.62
46007;BME280;31738;50.188;8.524;2024-02-23T08:10:32;96931.88;;;7.20;82.55
46007;BME280;31738;50.188;8.524;2024-02-23T08:12:58;96933.25;;;7.18;82.56
46007;BME280;31738;50.188;8.524;2024-02-23T08:15:27;96928.13;;;7.21;82.50
46007;BME280;31738;50.188;8.524;2024-02-23T08:17:55;96927.53;;;7.24;82.33
46007;BME280;31738;50.188;8.524;2024-02-23T08:20:21;96931.16;;;7.28;82.29
46007;BME280;31738;50.188;8.524;2024-02-23T08:22:52;96929.50;;;7.32;81.99
46007;BME280;31738;50.188;8.524;2024-02-23T08:25:20;96932.69;;;7.34;81.71
46007;BME280;31738;50.188;8.524;2024-02-23T08:27:45;96938.00;;;7.34;81.62
46007;BME280;31738;50.188;8.524;2024-02-23T08:30:13;96938.00;;;7.34;81.43
46007;BME280;31738;50.188;8.524;2024-02-23T08:32:45;96934.25;;;7.35;81.59
46007;BME280;31738;50.188;8.524;2024-02-23T08:35:16;96949.44;;;7.35;81.41
46007;BME280;31738;50.188;8.524;2024-02-23T08:38:07;96951.22;;;7.39;81.22
46007;BME280;31738;50.188;8.524;2024-02-23T08:40:34;96959.81;;;7.36;81.16
46007;BME280;31738;50.188;8.524;2024-02-23T08:42:59;96958.94;;;7.41;80.41
46007;BME280;31738;50.188;8.524;2024-02-23T08:45:25;96955.97;;;7.42;81.02
46007;BME280;31738;50.188;8.524;2024-02-23T08:47:55;96964.16;;;7.46;80.27
46007;BME280;31738;50.188;8.524;2024-02-23T08:50:21;96963.06;;;7.47;80.35
46007;BME280;31738;50.188;8.524;2024-02-23T08:52:50;96969.22;;;7.47;80.46
46007;BME280;31738;50.188;8.524;2024-02-23T08:55:19;96968.63;;;7.50;80.44
46007;BME280;31738;50.188;8.524;2024-02-23T08:57:49;96976.63;;;7.50;80.32
46007;BME280;31738;50.188;8.524;2024-02-23T09:00:18;96977.72;;;7.49;79.80
46007;BME280;31738;50.188;8.524;2024-02-23T09:02:43;96970.78;;;7.48;80.18
46007;BME280;31738;50.188;8.524;2024-02-23T09:05:09;96973.16;;;7.50;80.07
46007;BME280;31738;50.188;8.524;2024-02-23T09:07:37;96980.84;;;7.51;79.96
46007;BME280;31738;50.188;8.524;2024-02-23T09:10:03;96991.53;;;7.51;79.65
46007;BME280;31738;50.188;8.524;2024-02-23T09:12:37;96984.63;;;7.50;79.76
46007;BME280;31738;50.188;8.524;2024-02-23T09:38:47;96965.63;;;7.65;80.24
46007;BME280;31738;50.188;8.524;2024-02-23T09:41:23;96965.31;;;7.80;80.09
46007;BME280;31738;50.188;8.524;2024-02-23T09:43:49;96965.63;;;7.92;79.66
46007;BME280;31738;50.188;8.524;2024-02-23T09:46:17;96967.25;;;8.02;79.73
46007;BME280;31738;50.188;8.524;2024-02-23T09:48:48;96967.97;;;8.07;79.22
46007;BME280;31738;50.188;8.524;2024-02-23T09:51:18;96972.09;;;8.13;79.09
46007;BME280;31738;50.188;8.524;2024-02-23T09:53:44;96969.44;;;8.13;79.15
46007;BME280;31738;50.188;8.524;2024-02-23T09:56:15;96964.09;;;8.13;79.35
46007;BME280;31738;50.188;8.524;2024-02-23T09:58:47;96976.94;;;8.11;79.05
46007;BME280;31738;50.188;8.524;2024-02-23T10:01:20;96973.50;;;8.11;79.31
46007;BME280;31738;50.188;8.524;2024-02-23T10:03:59;96970.53;;;8.12;78.90
46007;BME280;31738;50.188;8.524;2024-02-23T10:06:32;96973.66;;;8.14;78.81
46007;BME280;31738;50.188;8.524;2024-02-23T10:09:01;96969.94;;;8.15;79.09
46007;BME280;31738;50.188;8.524;2024-02-23T10:11:34;96965.56;;;8.19;78.65
46007;BME280;31738;50.188;8.524;2024-02-23T10:14:02;96967.44;;;8.19;78.32
46007;BME280;31738;50.188;8.524;2024-02-23T10:16:28;96978.59;;;8.21;78.38
46007;BME280;31738;50.188;8.524;2024-02-23T10:19:09;96971.13;;;8.23;78.36
46007;BME280;31738;50.188;8.524;2024-02-23T10:21:34;96970.22;;;8.27;78.19
46007;BME280;31738;50.188;8.524;2024-02-23T10:24:00;96972.28;;;8.30;78.05
46007;BME280;31738;50.188;8.524;2024-02-23T10:26:48;96969.00;;;8.33;78.06
46007;BME280;31738;50.188;8.524;2024-02-23T10:29:57;96977.63;;;8.30;78.32
46007;BME280;31738;50.188;8.524;2024-02-23T10:32:23;96975.13;;;8.34;78.16
46007;BME280;31738;50.188;8.524;2024-02-23T10:34:55;96973.16;;;8.39;78.20
46007;BME280;31738;50.188;8.524;2024-02-23T10:37:43;96979.44;;;8.43;77.66
46007;BME280;31738;50.188;8.524;2024-02-23T10:40:24;96973.03;;;8.44;77.72
46007;BME280;31738;50.188;8.524;2024-02-23T10:43:15;96970.72;;;8.51;77.85
46007;BME280;31738;50.188;8.524;2024-02-23T10:46:12;96963.66;;;8.55;77.55
46007;BME280;31738;50.188;8.524;2024-02-23T10:48:59;96956.88;;;8.72;77.45
46007;BME280;31738;50.188;8.524;2024-02-23T10:51:37;96961.97;;;8.82;77.73
46007;BME280;31738;50.188;8.524;2024-02-23T10:54:16;96959.06;;;8.92;77.43
46007;BME280;31738;50.188;8.524;2024-02-23T10:57:01;96958.13;;;8.96;77.13
46007;BME280;31738;50.188;8.524;2024-02-23T10:59:28;96958.44;;;8.95;77.06
46007;BME280;31738;50.188;8.524;2024-02-23T11:02:02;96957.22;;;9.01;77.13
46007;BME280;31738;50.188;8.524;2024-02-23T11:04:32;96961.94;;;9.04;77.07
46007;BME280;31738;50.188;8.524;2024-02-23T11:07:13;96964.50;;;9.09;77.02
46007;BME280;31738;50.188;8.524;2024-02-23T11:10:04;96950.16;;;9.05;76.38
46007;BME280;31738;50.188;8.524;2024-02-23T11:12:48;96960.38;;;9.03;76.26
46007;BME280;31738;50.188;8.524;2024-02-23T11:15:34;96969.00;;;9.00;76.62
46007;BME280;31738;50.188;8.524;2024-02-23T11:18:32;96957.22;;;9.01;75.98
46007;BME280;31738;50.188;8.524;2024-02-23T11:21:17;96971.81;;;8.95;76.37
46007;BME280;31738;50.188;8.524;2024-02-23T11:24:05;96961.72;;;8.92;76.29
46007;BME280;31738;50.188;8.524;2024-02-23T11:26:37;96957.19;;;8.92;76.13
46007;BME280;31738;50.188;8.524;2024-02-23T11:29:11;96963.34;;;9.01;76.33
46007;BME280;31738;50.188;8.524;2024-02-23T11:31:47;96973.91;;;9.06;76.19
46007;BME280;31738;50.188;8.524;2024-02-23T11:34:24;96974.09;;;9.10;75.88
46007;BME280;31738;50.188;8.524;2024-02-23T11:36:54;96977.56;;;9.10;75.82
46007;BME280;31738;50.188;8.524;2024-02-23T11:39:20;96971.91;;;9.12;75.83
46007;BME280;31738;50.188;8.524;2024-02-23T11:41:57;96982.59;;;9.12;76.02
46007;BME280;31738;50.188;8.524;2024-02-23T11:44:28;96988.91;;;9.16;76.12
46007;BME280;31738;50.188;8.524;2024-02-23T11:46:59;96981.72;;;9.25;75.94
46007;BME280;31738;50.188;8.524;2024-02-23T11:49:34;96980.16;;;9.24;76.07
46007;BME280;31738;50.188;8.524;2024-02-23T11:52:14;96982.31;;;9.22;76.17
46007;BME280;31738;50.188;8.524;2024-02-23T11:54:44;96971.44;;;9.18;75.69
46007;BME280;31738;50.188;8.524;2024-02-23T11:57:18;96971.28;;;9.15;76.01
46007;BME280;31738;50.188;8.524;2024-02-23T11:59:46;96970.50;;;9.14;75.84
46007;BME280;31738;50.188;8.524;2024-02-23T12:02:14;96965.94;;;9.15;75.64
46007;BME280;31738;50.188;8.524;2024-02-23T12:04:40;96963.72;;;9.17;75.50
46007;BME280;31738;50.188;8.524;2024-02-23T12:07:29;96966.66;;;9.29;75.44
46007;BME280;31738;50.188;8.524;2024-02-23T12:10:00;96962.25;;;9.33;74.99
46007;BME280;31738;50.188;8.524;2024-02-23T12:12:32;96965.75;;;9.42;74.26
46007;BME280;31738;50.188;8.524;2024-02-23T12:14:58;96965.00;;;9.50;74.06
46007;BME280;31738;50.188;8.524;2024-02-23T12:17:25;96973.97;;;9.54;73.14
46007;BME280;31738;50.188;8.524;2024-02-23T12:20:10;96971.97;;;9.59;73.29
46007;BME280;31738;50.188;8.524;2024-02-23T12:22:40;96978.69;;;9.57;73.10
46007;BME280;31738;50.188;8.524;2024-02-23T12:25:12;96984.06;;;9.57;72.80
46007;BME280;31738;50.188;8.524;2024-02-23T12:27:41;96996.19;;;9.54;72.36
46007;BME280;31738;50.188;8.524;2024-02-23T12:30:17;96989.91;;;9.59;72.19
46007;BME280;31738;50.188;8.524;2024-02-23T12:32:45;96997.63;;;9.60;71.95
46007;BME280;31738;50.188;8.524;2024-02-23T12:35:23;97007.22;;;9.61;71.85
46007;BME280;31738;50.188;8.524;2024-02-23T12:37:51;97018.06;;;9.56;72.17
46007;BME280;31738;50.188;8.524;2024-02-23T12:40:22;97023.88;;;9.58;72.08
46007;BME280;31738;50.188;8.524;2024-02-23T12:43:08;97013.16;;;9.50;72.60
46007;BME280;31738;50.188;8.524;2024-02-23T12:45:42;97012.19;;;9.46;72.94
46007;BME280;31738;50.188;8.524;2024-02-23T12:48:15;96993.81;;;9.53;73.56
46007;BME280;31738;50.188;8.524;2024-02-23T12:50:54;96999.66;;;9.63;73.24
46007;BME280;31738;50.188;8.524;2024-02-23T12:53:39;96999.22;;;9.70;73.60
46007;BME280;31738;50.188;8.524;2024-02-23T12:56:12;96986.16;;;9.68;73.73
46007;BME280;31738;50.188;8.524;2024-02-23T12:58:53;96996.56;;;9.70;73.43
46007;BME280;31738;50.188;8.524;2024-02-23T13:01:22;96998.44;;;9.69;73.31
46007;BME280;31738;50.188;8.524;2024-02-23T13:03:52;96999.69;;;9.72;72.97
46007;BME280;31738;50.188;8.524;2024-02-23T13:06:33;96993.88;;;9.70;72.97
46007;BME280;31738;50.188;8.524;2024-02-23T13:09:14;96999.06;;;9.66;72.20
46007;BME280;31738;50.188;8.524;2024-02-23T13:12:02;96999.50;;;9.60;72.57
46007;BME280;31738;50.188;8.524;2024-02-23T13:14:27;97006.56;;;9.56;72.55
46007;BME280;31738;50.188;8.524;2024-02-23T13:16:56;97017.91;;;9.53;72.04
46007;BME280;31738;50.188;8.524;2024-02-23T13:19:29;97018.81;;;9.48;72.11
46007;BME280;31738;50.188;8.524;2024-02-23T13:21:58;96999.78;;;9.50;71.61
46007;BME280;31738;50.188;8.524;2024-02-23T13:24:32;97002.31;;;9.55;71.74
46007;BME280;31738;50.188;8.524;2024-02-23T13:27:01;97003.28;;;9.59;71.53
46007;BME280;31738;50.188;8.524;2024-02-23T13:29:37;97006.44;;;9.61;70.89
46007;BME280;31738;50.188;8.524;2024-02-23T13:32:15;96998.56;;;9.64;71.07
46007;BME280;31738;50.188;8.524;2024-02-23T13:34:47;97005.97;;;9.67;70.54
46007;BME280;31738;50.188;8.524;2024-02-23T13:37:20;96999.84;;;9.67;70.39
46007;BME280;31738;50.188;8.524;2024-02-23T13:39:48;97006.47;;;9.69;69.50
46007;BME280;31738;50.188;8.524;2024-02-23T13:42:16;96998.13;;;9.71;69.70
46007;BME280;31738;50.188;8.524;2024-02-23T13:44:44;97000.19;;;9.74;69.30
46007;BME280;31738;50.188;8.524;2024-02-23T13:47:12;97000.03;;;9.79;68.52